Kailua, HI

7:38 AM HST on January 27, 2015 (GMT -1000)
Kailua | Change Station
CLOSE
Current Station
Personal Weather Station
Location: Kailua, HI
Elevation: 12 ft
Nearby Weather Stations

Elev 12 ft 21.37 °N, 157.74 °W | Updated 13 minutes ago

Overcast
Overcast
72.6 °F
Feels Like 75 °F
N
1.0
Wind Variable Wind from ENE
Gusts 11.0 mph

Today
High -- | Low -- °F
--% Chance of Precip.
Yesterday
High -- | Low -- °F
Precip. -- in
7:09 AM 6:17 PM
First Quarter, 56% visible
Pressure 29.96 in
Visibility -9999.0 miles
Clouds Few 3800 ft
Overcast 4500 ft
Heat Index 75 °F
Dew Point 63 °F
Humidity 72%
Rainfall 0.00 in
Snow Depth Not available.
UV 0 out of 12
Pollen Not available.
Air Quality Not available.
Flu Activity Not available.
METAR PHNG 271657Z 08010KT FEW038 OVC045 23/16 A2997 RMK AO2 SLP145 T02280156 $

More Conditions Fewer Conditions

Pressure 29.96 in
Visibility -9999.0 miles
Clouds Few 3800 ft
Overcast 4500 ft
Heat Index 75 °F
Dew Point 63 °F
Humidity 72%
Rainfall 0.00 in
Snow Depth Not available.
UV 0 out of 12
Pollen Not available.
Air Quality Not available.
Flu Activity Not available.
METAR PHNG 271657Z 08010KT FEW038 OVC045 23/16 A2997 RMK AO2 SLP145 T02280156 $

More Conditions Fewer Conditions

10-Day Weather Forecast

Almanac

Astronomy

Jan. 27, 2015 Rise Set
Actual Time
Civil Twilight
Nautical Twilight
Astronomical Twilight
Moon
Length of Visible Light
Length of Day
Tomorrow will be .
, % of the Moon is Illuminated

Today's Extremes

State Highs State Lows

Community

WunderPhotos

Upload Photos

1,790,732 photos uploaded!

WunderBlogs® & News

Nearby

Air Quality

  Air Quality AQ Index Pollutant
Not available.

Snow Depth

Station Depth Elevation

Earthquake Activity

City Distance Mag. Time & Date
Minimum magnitude displayed is 2.5.

Coastal Water Temperatures

Place Temperature

Nearby Weather Stations